Zefira — 9HA2459 — position and weather

sailwx.info

Track history (hours):
 
Tides and Currents Weather Stations Pressure Air Temp Water Temp Dewpoint Dewpoint Depression Visibility Wind Speed Wind Dir Waves Ship Positions

Zefira

Last reported at 2016-Jul-20 09:07 UTC. Time now 2016-Jul-30 07:25 UTC.
Position N 37°52' E 015°60'.
Warning: this ship's position is 9 days out of date.

Length 50 m; draft 4.9 m.

Type: Pleasure craft. MMSI: 248663000.

Date/timePositionNaut miles runAvg speedWind from/ knotsBaromVisibWave heightAir tempDewpointWater temp
2016-Jul-20 09:07N 37°52' E 015°60'5 8.3
2016-Jul-20 08:30N 37°52' E 015°53'8 8.4
2016-Jul-20 07:33N 37°53' E 015°43'9 9.4
2016-Jul-20 06:34N 37°59' E 015°34'10 9.6
2016-Jul-20 05:33N 38°09' E 015°34'8 8.1
2016-Jul-20 04:33N 38°16' E 015°40'9 9.2
2016-Jul-20 03:33N 38°25' E 015°37'10 9.7
2016-Jul-20 02:33N 38°33' E 015°32'10 9.6
2016-Jul-20 01:33N 38°42' E 015°26'10 9.6
2016-Jul-20 00:33N 38°51' E 015°21'10 9.6
2016-Jul-19 23:33N 38°59' E 015°16'10 9.6
2016-Jul-19 22:33N 39°08' E 015°10'23 9.7
2016-Jul-19 20:12N 39°29' E 014°58'18 9.9
2016-Jul-19 18:23N 39°45' E 014°48'9 9.9
2016-Jul-19 17:30N 39°53' E 014°43'1010.0
2016-Jul-19 16:29N 40°02' E 014°38'1210.2
2016-Jul-19 15:19N 40°13' E 014°31'910.1
2016-Jul-19 14:28N 40°21' E 014°27'9 9.8
2016-Jul-19 13:31N 40°29' E 014°22'9 9.8
2016-Jul-19 12:33N 40°38' E 014°17'10 9.8
2016-Jul-19 11:33N 40°48' E 014°15'2 0.5
2016-Jul-19 08:04N 40°50' E 014°14'0 0.0
2016-Jul-19 07:31N 40°50' E 014°14'0 0.0
2016-Jul-19 06:31N 40°50' E 014°14'0 0.0
2016-Jul-18 22:12N 40°50' E 014°14'0 0.0
2016-Jul-18 21:33N 40°50' E 014°14'0 0.0
2016-Jul-18 20:33N 40°50' E 014°14'0 0.0
2016-Jul-18 19:33N 40°50' E 014°14'0 0.1
2016-Jul-18 18:30N 40°50' E 014°14'0 0.0
2016-Jul-18 17:33N 40°50' E 014°14'3 0.6
2016-Jul-18 12:33N 40°47' E 014°15'9 9.6
2016-Jul-18 11:33N 40°37' E 014°16'5 1.6
2016-Jul-18 08:24N 40°32' E 014°14'0 0.0
2016-Jul-18 07:30N 40°32' E 014°14'0 0.0
2016-Jul-18 06:33N 40°32' E 014°14'0 0.0
2016-Jul-18 05:32N 40°32' E 014°14'0 0.0
2016-Jul-18 04:32N 40°32' E 014°14'0 0.0
2016-Jul-18 03:32N 40°32' E 014°14'2 0.0
2016-Jul-16 10:06N 40°34' E 014°16'611.6
2016-Jul-16 09:33N 40°40' E 014°14'8 0.2
2016-Jul-14 15:31N 40°49' E 014°14'1010.8
2016-Jul-14 14:33N 40°38' E 014°13'6 0.2
2016-Jul-13 10:29N 40°33' E 014°16'1010.7
2016-Jul-13 09:33N 40°42' E 014°23'4 2.7
2016-Jul-13 08:13N 40°45' E 014°26'0 0.0
2016-Jul-13 07:25N 40°45' E 014°26'0 0.0
2016-Jul-13 06:31N 40°45' E 014°26'0 0.0
2016-Jul-13 05:31N 40°45' E 014°26'0 0.0
2016-Jul-13 04:31N 40°45' E 014°26'0 0.0
2016-Jul-13 03:31N 40°45' E 014°26'0 0.0
2016-Jul-13 02:31N 40°45' E 014°26'0 0.0
2016-Jul-13 01:33N 40°45' E 014°26'0 0.0
2016-Jul-13 00:18N 40°45' E 014°26'0 0.0
2016-Jul-12 23:24N 40°45' E 014°26'0 0.0
2016-Jul-12 22:30N 40°45' E 014°26'0 0.0
2016-Jul-12 21:24N 40°45' E 014°26'0 0.0
2016-Jul-12 20:24N 40°45' E 014°26'0 0.0
2016-Jul-12 19:32N 40°45' E 014°26'0 0.0
2016-Jul-12 18:30N 40°45' E 014°26'0 0.0
2016-Jul-12 17:24N 40°45' E 014°26'0 0.1
2016-Jul-12 16:31N 40°45' E 014°26'1010.4
2016-Jul-12 15:33N 40°37' E 014°19'3 2.6
2016-Jul-12 14:33N 40°35' E 014°21'0 0.0
2016-Jul-12 13:30N 40°35' E 014°21'0 0.0
2016-Jul-12 12:32N 40°35' E 014°21'0 0.1
2016-Jul-12 11:34N 40°35' E 014°21'5 5.4
2016-Jul-12 10:33N 40°33' E 014°15'0 0.0
2016-Jul-12 09:33N 40°33' E 014°15'0 0.0
2016-Jul-12 08:33N 40°33' E 014°15'0 0.0
2016-Jul-12 07:33N 40°32' E 014°15'0 0.0
2016-Jul-12 06:33N 40°32' E 014°15'0 0.0
2016-Jul-12 05:19N 40°32' E 014°15'0 0.0
2016-Jul-12 04:30N 40°32' E 014°15'0 0.0
2016-Jul-12 03:33N 40°32' E 014°15'0 0.0
2016-Jul-12 02:33N 40°32' E 014°15'0 0.0
2016-Jul-12 01:33N 40°32' E 014°15'0 0.0
2016-Jul-12 00:32N 40°32' E 014°15'0 0.0
2016-Jul-11 23:32N 40°32' E 014°15'0 0.0
2016-Jul-11 22:32N 40°32' E 014°15'0 0.0
2016-Jul-11 21:32N 40°32' E 014°15'0 0.0
2016-Jul-11 20:29N 40°32' E 014°15'0 0.0
2016-Jul-11 06:31N 40°32' E 014°15'0 0.0
2016-Jul-11 04:31N 40°32' E 014°15'0 0.0
2016-Jul-11 03:31N 40°32' E 014°15'0 0.0
2016-Jul-11 02:25N 40°32' E 014°15'0 0.0
2016-Jul-11 01:28N 40°32' E 014°15'0 0.0
2016-Jul-11 00:31N 40°32' E 014°15'0 0.0
2016-Jul-10 23:31N 40°32' E 014°15'0 0.0
2016-Jul-10 22:33N 40°32' E 014°15'0 0.0
2016-Jul-10 21:33N 40°32' E 014°15'0 0.0
2016-Jul-10 20:33N 40°32' E 014°15'0 0.0
2016-Jul-10 19:33N 40°32' E 014°15'0 0.0
2016-Jul-10 13:12N 40°33' E 014°15'  
Track history (hours):
 
Tides and Currents Weather Stations Pressure Air Temp Water Temp Dewpoint Dewpoint Depression Visibility Wind Speed Wind Dir Waves Ship Positions

Zefira

Last reported at 2016-Jul-20 09:07 UTC. Time now 2016-Jul-30 07:25 UTC.
Position N 37°52' E 015°60'.
Warning: this ship's position is 9 days out of date.

Length 50 m; draft 4.9 m.

Type: Pleasure craft. MMSI: 248663000.

Date/timePositionNaut miles runAvg speedWind from/ knotsBaromVisibWave heightAir tempDewpointWater temp
2016-Jul-20 09:07N 37°52' E 015°60'5 8.3
2016-Jul-20 08:30N 37°52' E 015°53'8 8.4
2016-Jul-20 07:33N 37°53' E 015°43'9 9.4
2016-Jul-20 06:34N 37°59' E 015°34'10 9.6
2016-Jul-20 05:33N 38°09' E 015°34'8 8.1
2016-Jul-20 04:33N 38°16' E 015°40'9 9.2
2016-Jul-20 03:33N 38°25' E 015°37'10 9.7
2016-Jul-20 02:33N 38°33' E 015°32'10 9.6
2016-Jul-20 01:33N 38°42' E 015°26'10 9.6
2016-Jul-20 00:33N 38°51' E 015°21'10 9.6
2016-Jul-19 23:33N 38°59' E 015°16'10 9.6
2016-Jul-19 22:33N 39°08' E 015°10'23 9.7
2016-Jul-19 20:12N 39°29' E 014°58'18 9.9
2016-Jul-19 18:23N 39°45' E 014°48'9 9.9
2016-Jul-19 17:30N 39°53' E 014°43'1010.0
2016-Jul-19 16:29N 40°02' E 014°38'1210.2
2016-Jul-19 15:19N 40°13' E 014°31'910.1
2016-Jul-19 14:28N 40°21' E 014°27'9 9.8
2016-Jul-19 13:31N 40°29' E 014°22'9 9.8
2016-Jul-19 12:33N 40°38' E 014°17'10 9.8
2016-Jul-19 11:33N 40°48' E 014°15'2 0.5
2016-Jul-19 08:04N 40°50' E 014°14'0 0.0
2016-Jul-19 07:31N 40°50' E 014°14'0 0.0
2016-Jul-19 06:31N 40°50' E 014°14'0 0.0
2016-Jul-18 22:12N 40°50' E 014°14'0 0.0
2016-Jul-18 21:33N 40°50' E 014°14'0 0.0
2016-Jul-18 20:33N 40°50' E 014°14'0 0.0
2016-Jul-18 19:33N 40°50' E 014°14'0 0.1
2016-Jul-18 18:30N 40°50' E 014°14'0 0.0
2016-Jul-18 17:33N 40°50' E 014°14'3 0.6
2016-Jul-18 12:33N 40°47' E 014°15'9 9.6
2016-Jul-18 11:33N 40°37' E 014°16'5 1.6
2016-Jul-18 08:24N 40°32' E 014°14'0 0.0
2016-Jul-18 07:30N 40°32' E 014°14'0 0.0
2016-Jul-18 06:33N 40°32' E 014°14'0 0.0
2016-Jul-18 05:32N 40°32' E 014°14'0 0.0
2016-Jul-18 04:32N 40°32' E 014°14'0 0.0
2016-Jul-18 03:32N 40°32' E 014°14'2 0.0
2016-Jul-16 10:06N 40°34' E 014°16'611.6
2016-Jul-16 09:33N 40°40' E 014°14'8 0.2
2016-Jul-14 15:31N 40°49' E 014°14'1010.8
2016-Jul-14 14:33N 40°38' E 014°13'6 0.2
2016-Jul-13 10:29N 40°33' E 014°16'1010.7
2016-Jul-13 09:33N 40°42' E 014°23'4 2.7
2016-Jul-13 08:13N 40°45' E 014°26'0 0.0
2016-Jul-13 07:25N 40°45' E 014°26'0 0.0
2016-Jul-13 06:31N 40°45' E 014°26'0 0.0
2016-Jul-13 05:31N 40°45' E 014°26'0 0.0
2016-Jul-13 04:31N 40°45' E 014°26'0 0.0
2016-Jul-13 03:31N 40°45' E 014°26'0 0.0
2016-Jul-13 02:31N 40°45' E 014°26'0 0.0
2016-Jul-13 01:33N 40°45' E 014°26'0 0.0
2016-Jul-13 00:18N 40°45' E 014°26'0 0.0
2016-Jul-12 23:24N 40°45' E 014°26'0 0.0
2016-Jul-12 22:30N 40°45' E 014°26'0 0.0
2016-Jul-12 21:24N 40°45' E 014°26'0 0.0
2016-Jul-12 20:24N 40°45' E 014°26'0 0.0
2016-Jul-12 19:32N 40°45' E 014°26'0 0.0
2016-Jul-12 18:30N 40°45' E 014°26'0 0.0
2016-Jul-12 17:24N 40°45' E 014°26'0 0.1
2016-Jul-12 16:31N 40°45' E 014°26'1010.4
2016-Jul-12 15:33N 40°37' E 014°19'3 2.6
2016-Jul-12 14:33N 40°35' E 014°21'0 0.0
2016-Jul-12 13:30N 40°35' E 014°21'0 0.0
2016-Jul-12 12:32N 40°35' E 014°21'0 0.1
2016-Jul-12 11:34N 40°35' E 014°21'5 5.4
2016-Jul-12 10:33N 40°33' E 014°15'0 0.0
2016-Jul-12 09:33N 40°33' E 014°15'0 0.0
2016-Jul-12 08:33N 40°33' E 014°15'0 0.0
2016-Jul-12 07:33N 40°32' E 014°15'0 0.0
2016-Jul-12 06:33N 40°32' E 014°15'0 0.0
2016-Jul-12 05:19N 40°32' E 014°15'0 0.0
2016-Jul-12 04:30N 40°32' E 014°15'0 0.0
2016-Jul-12 03:33N 40°32' E 014°15'0 0.0
2016-Jul-12 02:33N 40°32' E 014°15'0 0.0
2016-Jul-12 01:33N 40°32' E 014°15'0 0.0
2016-Jul-12 00:32N 40°32' E 014°15'0 0.0
2016-Jul-11 23:32N 40°32' E 014°15'0 0.0
2016-Jul-11 22:32N 40°32' E 014°15'0 0.0
2016-Jul-11 21:32N 40°32' E 014°15'0 0.0
2016-Jul-11 20:29N 40°32' E 014°15'0 0.0
2016-Jul-11 06:31N 40°32' E 014°15'0 0.0
2016-Jul-11 04:31N 40°32' E 014°15'0 0.0
2016-Jul-11 03:31N 40°32' E 014°15'0 0.0
2016-Jul-11 02:25N 40°32' E 014°15'0 0.0
2016-Jul-11 01:28N 40°32' E 014°15'0 0.0
2016-Jul-11 00:31N 40°32' E 014°15'0 0.0
2016-Jul-10 23:31N 40°32' E 014°15'0 0.0
2016-Jul-10 22:33N 40°32' E 014°15'0 0.0
2016-Jul-10 21:33N 40°32' E 014°15'0 0.0
2016-Jul-10 20:33N 40°32' E 014°15'0 0.0
2016-Jul-10 19:33N 40°32' E 014°15'0 0.0
2016-Jul-10 13:12N 40°33' E 014°15'  

Dump ship's entire track history